createdAt,value
2018-05-08T00:00:54.206Z,1018.24
2018-05-08T00:02:03.151Z,1018.2
2018-05-08T00:03:11.980Z,1018.21
2018-05-08T00:04:20.817Z,1018.23
2018-05-08T00:05:29.936Z,1018.2
2018-05-08T00:06:38.771Z,1018.22
2018-05-08T00:07:47.608Z,1018.19
2018-05-08T00:08:56.798Z,1018.2
2018-05-08T00:10:06.221Z,1018.15
2018-05-08T00:11:15.334Z,1018.18
2018-05-08T00:12:24.170Z,1018.17
2018-05-08T00:13:33.107Z,1018.17
2018-05-08T00:14:42.216Z,1018.22
2018-05-08T00:15:51.052Z,1018.19
2018-05-08T00:16:59.895Z,1018.21
2018-05-08T00:18:08.727Z,1018.17
2018-05-08T00:19:17.563Z,1018.15
2018-05-08T00:20:26.399Z,1018.21
2018-05-08T00:21:35.240Z,1018.16
2018-05-08T00:22:44.625Z,1018.13
2018-05-08T00:23:53.462Z,1018.13
2018-05-08T00:25:02.350Z,1018.13
2018-05-08T00:26:11.185Z,1018.1
2018-05-08T00:27:20.023Z,1018.07
2018-05-08T00:28:29.134Z,1018.06
2018-05-08T00:29:38.257Z,1018.04
2018-05-08T00:30:47.465Z,1018.04
2018-05-08T00:31:56.304Z,1018.02
2018-05-08T00:33:05.142Z,1018
2018-05-08T00:34:14.255Z,1018
2018-05-08T00:35:23.096Z,1017.97
2018-05-08T00:36:31.980Z,1017.96
2018-05-08T00:37:40.815Z,1017.91
2018-05-08T00:38:49.937Z,1017.94
2018-05-08T00:39:58.773Z,1017.9
2018-05-08T00:41:07.882Z,1017.89
2018-05-08T00:42:16.767Z,1017.9
2018-05-08T00:43:25.607Z,1017.92
2018-05-08T00:44:34.444Z,1017.87
2018-05-08T00:45:43.282Z,1017.87
2018-05-08T00:46:52.128Z,1017.89
2018-05-08T00:48:01.387Z,1017.83
2018-05-08T00:49:10.506Z,1017.83
2018-05-08T00:50:19.615Z,1017.87
2018-05-08T00:51:28.456Z,1017.84
2018-05-08T00:52:37.561Z,1017.86
2018-05-08T00:53:46.778Z,1017.87
2018-05-08T00:54:55.613Z,1017.85
2018-05-08T00:56:04.448Z,1017.83
2018-05-08T00:57:13.283Z,1017.85
2018-05-08T00:58:22.122Z,1017.81
2018-05-08T00:59:31.385Z,1017.82
2018-05-08T01:00:40.222Z,1017.8
2018-05-08T01:01:49.061Z,1017.81
2018-05-08T01:02:58.176Z,1017.8
2018-05-08T01:04:07.009Z,1017.8
2018-05-08T01:05:16.124Z,1017.82
2018-05-08T01:06:24.962Z,1017.78
2018-05-08T01:07:33.800Z,1017.82
2018-05-08T01:08:42.635Z,1017.84
2018-05-08T01:09:51.472Z,1017.85
2018-05-08T01:11:00.591Z,1017.83
2018-05-08T01:12:09.428Z,1017.81
2018-05-08T01:13:18.537Z,1017.79
2018-05-08T01:14:27.653Z,1017.76
2018-05-08T01:15:36.491Z,1017.81
2018-05-08T01:16:45.379Z,1017.78
2018-05-08T01:17:54.218Z,1017.8
2018-05-08T01:19:03.051Z,1017.79
2018-05-08T01:20:12.164Z,1017.77
2018-05-08T01:21:21.003Z,1017.79
2018-05-08T01:22:29.843Z,1017.73
2018-05-08T01:23:38.676Z,1017.78
2018-05-08T01:24:47.512Z,1017.72
2018-05-08T01:25:56.354Z,1017.76
2018-05-08T01:27:05.469Z,1017.71
2018-05-08T01:28:14.310Z,1017.74
2018-05-08T01:29:23.147Z,1017.73
2018-05-08T01:30:32.262Z,1017.72
2018-05-08T01:31:41.537Z,1017.72
2018-05-08T01:32:50.490Z,1017.77
2018-05-08T01:33:59.475Z,1017.74
2018-05-08T01:35:08.312Z,1017.74
2018-05-08T01:36:17.426Z,1017.77
2018-05-08T01:37:26.539Z,1017.76
2018-05-08T01:38:35.374Z,1017.75
2018-05-08T01:39:44.360Z,1017.72
2018-05-08T01:40:53.196Z,1017.72
2018-05-08T01:42:02.033Z,1017.71
2018-05-08T01:43:11.149Z,1017.72
2018-05-08T01:44:19.985Z,1017.68
2018-05-08T01:45:29.270Z,1017.73
2018-05-08T01:46:38.105Z,1017.72
2018-05-08T01:47:46.941Z,1017.68
2018-05-08T01:48:55.775Z,1017.66
2018-05-08T01:50:04.609Z,1017.69
2018-05-08T01:51:13.446Z,1017.65
2018-05-08T01:52:22.285Z,1017.67
2018-05-08T01:53:31.409Z,1017.67
2018-05-08T01:54:41.087Z,1017.65
2018-05-08T01:55:49.914Z,1017.61
2018-05-08T01:56:58.849Z,1017.63
2018-05-08T01:58:07.684Z,1017.66
2018-05-08T01:59:16.520Z,1017.59
2018-05-08T02:00:25.627Z,1017.64
2018-05-08T02:01:34.465Z,1017.6
2018-05-08T02:02:43.775Z,1017.62
2018-05-08T02:03:53.166Z,1017.6
2018-05-08T02:05:02.005Z,1017.56
2018-05-08T02:06:10.840Z,1017.6
2018-05-08T02:07:19.680Z,1017.59
2018-05-08T02:08:28.661Z,1017.58
2018-05-08T02:09:37.494Z,1017.57
2018-05-08T02:10:46.327Z,1017.58
2018-05-08T02:11:55.164Z,1017.59
2018-05-08T02:13:04.000Z,1017.56
2018-05-08T02:14:12.986Z,1017.57
2018-05-08T02:15:21.829Z,1017.55
2018-05-08T02:16:30.941Z,1017.56
2018-05-08T02:17:40.329Z,1017.57
2018-05-08T02:18:49.168Z,1017.52
2018-05-08T02:19:58.008Z,1017.47
2018-05-08T02:21:06.844Z,1017.49
2018-05-08T02:22:15.677Z,1017.46
2018-05-08T02:23:24.513Z,1017.42
2018-05-08T02:24:33.347Z,1017.43
2018-05-08T02:25:42.533Z,1017.42
2018-05-08T02:26:51.367Z,1017.43
2018-05-08T02:28:00.752Z,1017.38
2018-05-08T02:29:09.866Z,1017.44
2018-05-08T02:30:18.702Z,1017.41
2018-05-08T02:31:28.163Z,1017.42
2018-05-08T02:32:37.279Z,1017.42
2018-05-08T02:33:46.110Z,1017.41
2018-05-08T02:34:55.229Z,1017.38
2018-05-08T02:36:04.905Z,1017.36
2018-05-08T02:37:14.180Z,1017.35
2018-05-08T02:38:23.296Z,1017.4
2018-05-08T02:39:32.125Z,1017.36
2018-05-08T02:40:41.251Z,1017.29
2018-05-08T02:41:50.380Z,1017.33
2018-05-08T02:42:59.483Z,1017.31
2018-05-08T02:44:08.326Z,1017.28
2018-05-08T02:45:17.443Z,1017.33
2018-05-08T02:46:26.557Z,1017.35
2018-05-08T02:47:35.942Z,1017.31
2018-05-08T02:48:45.134Z,1017.37
2018-05-08T02:49:53.975Z,1017.37
2018-05-08T02:51:03.087Z,1017.4
2018-05-08T02:52:11.923Z,1017.38
2018-05-08T02:53:21.314Z,1017.38
2018-05-08T02:54:30.704Z,1017.36
2018-05-08T02:55:39.814Z,1017.34
2018-05-08T02:56:48.651Z,1017.34
2018-05-08T02:57:57.487Z,1017.36
2018-05-08T02:59:06.326Z,1017.32
2018-05-08T03:00:15.412Z,1017.33
2018-05-08T03:01:24.838Z,1017.31
2018-05-08T03:02:33.946Z,1017.28
2018-05-08T03:03:43.064Z,1017.29
2018-05-08T03:04:52.177Z,1017.31
2018-05-08T03:06:01.448Z,1017.29
2018-05-08T03:07:10.846Z,1017.25
2018-05-08T03:08:19.961Z,1017.28
2018-05-08T03:09:29.076Z,1017.24
2018-05-08T03:10:38.460Z,1017.23
2018-05-08T03:11:47.450Z,1017.26
2018-05-08T03:12:56.287Z,1017.23
2018-05-08T03:14:05.122Z,1017.25
2018-05-08T03:15:14.237Z,1017.27
2018-05-08T03:16:23.066Z,1017.26
2018-05-08T03:17:31.902Z,1017.26
2018-05-08T03:18:40.737Z,1017.25
2018-05-08T03:19:49.571Z,1017.26
2018-05-08T03:20:58.404Z,1017.26
2018-05-08T03:22:07.239Z,1017.28
2018-05-08T03:23:16.075Z,1017.29
2018-05-08T03:24:25.199Z,1017.29
2018-05-08T03:25:34.021Z,1017.25
2018-05-08T03:26:42.857Z,1017.32
2018-05-08T03:27:51.694Z,1017.24
2018-05-08T03:29:00.627Z,1017.27
2018-05-08T03:30:09.463Z,1017.27
2018-05-08T03:31:18.375Z,1017.28
2018-05-08T03:32:27.412Z,1017.27
2018-05-08T03:33:36.528Z,1017.27
2018-05-08T03:34:45.720Z,1017.25
2018-05-08T03:35:54.562Z,1017.25
2018-05-08T03:37:03.668Z,1017.25
2018-05-08T03:38:12.505Z,1017.2
2018-05-08T03:39:21.340Z,1017.21
2018-05-08T03:40:30.924Z,1017.2
2018-05-08T03:41:39.766Z,1017.19
2018-05-08T03:42:48.599Z,1017.2
2018-05-08T03:43:57.436Z,1017.19
2018-05-08T03:45:06.270Z,1017.18
2018-05-08T03:46:15.155Z,1017.22
2018-05-08T03:47:23.987Z,1017.21
2018-05-08T03:48:32.821Z,1017.24
2018-05-08T03:49:41.656Z,1017.22
2018-05-08T03:50:50.491Z,1017.21
2018-05-08T03:51:59.329Z,1017.22
2018-05-08T03:53:08.164Z,1017.25
2018-05-08T03:54:17.001Z,1017.24
2018-05-08T03:55:26.385Z,1017.21
2018-05-08T03:56:35.226Z,1017.24
2018-05-08T03:57:44.440Z,1017.23
2018-05-08T03:58:53.547Z,1017.22
2018-05-08T04:00:02.660Z,1017.26
2018-05-08T04:01:11.498Z,1017.24
2018-05-08T04:02:20.334Z,1017.24
2018-05-08T04:03:29.219Z,1017.24
2018-05-08T04:04:38.055Z,1017.24
2018-05-08T04:05:46.892Z,1017.27
2018-05-08T04:06:55.833Z,1017.25
2018-05-08T04:08:04.559Z,1017.19
2018-05-08T04:09:13.492Z,1017.18
2018-05-08T04:10:22.330Z,1017.18
2018-05-08T04:11:31.438Z,1017.17
2018-05-08T04:12:40.549Z,1017.16
2018-05-08T04:13:49.385Z,1017.13
2018-05-08T04:14:58.303Z,1017.14
2018-05-08T04:16:07.856Z,1017.17
2018-05-08T04:17:16.682Z,1017.13
2018-05-08T04:18:25.527Z,1017.14
2018-05-08T04:19:34.362Z,1017.09
2018-05-08T04:20:43.547Z,1017.12
2018-05-08T04:21:52.940Z,1017.11
2018-05-08T04:23:01.771Z,1017.09
2018-05-08T04:24:10.606Z,1017.08
2018-05-08T04:25:19.437Z,1017.1
2018-05-08T04:26:28.623Z,1017.04
2018-05-08T04:27:37.464Z,1017.03
2018-05-08T04:28:46.573Z,1017.11
2018-05-08T04:29:55.410Z,1017.03
2018-05-08T04:31:04.523Z,1017.02
2018-05-08T04:32:13.353Z,1017
2018-05-08T04:33:22.187Z,1017
2018-05-08T04:34:31.019Z,1016.97
2018-05-08T04:35:40.141Z,1016.99
2018-05-08T04:36:49.258Z,1016.94
2018-05-08T04:37:58.631Z,1016.88
2018-05-08T04:39:07.472Z,1016.89
2018-05-08T04:40:16.307Z,1016.9
2018-05-08T04:41:25.141Z,1016.86
2018-05-08T04:42:33.976Z,1016.95
2018-05-08T04:43:43.089Z,1016.88
2018-05-08T04:44:51.923Z,1016.89
2018-05-08T04:46:00.761Z,1016.89
2018-05-08T04:47:09.599Z,1016.88
2018-05-08T04:48:18.434Z,1016.88
2018-05-08T04:49:27.698Z,1016.9
2018-05-08T04:50:36.527Z,1016.84
2018-05-08T04:51:45.362Z,1016.84
2018-05-08T04:52:54.198Z,1016.87
2018-05-08T04:54:03.312Z,1016.87
2018-05-08T04:55:12.246Z,1016.85
2018-05-08T04:56:21.083Z,1016.84
2018-05-08T04:57:29.914Z,1016.83
2018-05-08T04:58:38.751Z,1016.84
2018-05-08T04:59:47.868Z,1016.83
2018-05-08T05:00:56.981Z,1016.84
2018-05-08T05:02:05.821Z,1016.83
2018-05-08T05:03:14.664Z,1016.82
2018-05-08T05:04:24.055Z,1016.84
2018-05-08T05:05:32.889Z,1016.82
2018-05-08T05:06:41.872Z,1016.81
2018-05-08T05:07:51.029Z,1016.78
2018-05-08T05:08:59.865Z,1016.79
2018-05-08T05:10:08.986Z,1016.86
2018-05-08T05:11:18.098Z,1016.79
2018-05-08T05:12:27.213Z,1016.76
2018-05-08T05:13:36.053Z,1016.77
2018-05-08T05:14:45.164Z,1016.74
2018-05-08T05:15:54.001Z,1016.75
2018-05-08T05:17:02.837Z,1016.72
2018-05-08T05:18:11.672Z,1016.71
2018-05-08T05:19:20.509Z,1016.71
2018-05-08T05:20:29.622Z,1016.72
2018-05-08T05:21:38.737Z,1016.7
2018-05-08T05:22:47.572Z,1016.7
2018-05-08T05:23:56.732Z,1016.71
2018-05-08T05:25:05.568Z,1016.73
2018-05-08T05:26:14.406Z,1016.69
2018-05-08T05:27:23.236Z,1016.71
2018-05-08T05:28:32.346Z,1016.67
2018-05-08T05:29:41.180Z,1016.71
2018-05-08T05:30:50.020Z,1016.74
2018-05-08T05:31:58.850Z,1016.75
2018-05-08T05:33:07.967Z,1016.72
2018-05-08T05:34:16.804Z,1016.73
2018-05-08T05:35:25.639Z,1016.68
2018-05-08T05:36:34.475Z,1016.74
2018-05-08T05:37:43.312Z,1016.65
2018-05-08T05:38:52.148Z,1016.64
2018-05-08T05:40:01.272Z,1016.64
2018-05-08T05:41:10.212Z,1016.66
2018-05-08T05:42:19.056Z,1016.62
2018-05-08T05:43:27.943Z,1016.64
2018-05-08T05:44:36.778Z,1016.59
2018-05-08T05:45:45.889Z,1016.62
2018-05-08T05:46:55.076Z,1016.63
2018-05-08T05:48:03.911Z,1016.63
2018-05-08T05:49:12.791Z,1016.61
2018-05-08T05:50:21.627Z,1016.63
2018-05-08T05:51:30.464Z,1016.64
2018-05-08T05:52:39.301Z,1016.64
2018-05-08T05:53:48.417Z,1016.61
2018-05-08T05:54:57.253Z,1016.6
2018-05-08T05:56:06.085Z,1016.63
2018-05-08T05:57:14.920Z,1016.6
2018-05-08T05:58:23.905Z,1016.58
2018-05-08T05:59:32.743Z,1016.61
2018-05-08T06:00:41.573Z,1016.53
2018-05-08T06:01:50.691Z,1016.52
2018-05-08T06:02:59.528Z,1016.53
2018-05-08T06:04:08.971Z,1016.48
2018-05-08T06:05:17.804Z,1016.51
2018-05-08T06:06:26.694Z,1016.47
2018-05-08T06:07:35.860Z,1016.51
2018-05-08T06:08:44.969Z,1016.49
2018-05-08T06:09:54.009Z,1016.45
2018-05-08T06:11:02.842Z,1016.47
2018-05-08T06:12:11.681Z,1016.46
2018-05-08T06:13:20.517Z,1016.42
2018-05-08T06:14:29.353Z,1016.41
2018-05-08T06:15:38.442Z,1016.4
2018-05-08T06:16:47.278Z,1016.42
2018-05-08T06:17:56.389Z,1016.41
2018-05-08T06:19:05.278Z,1016.43
2018-05-08T06:20:14.112Z,1016.44
2018-05-08T06:21:23.372Z,1016.43
2018-05-08T06:22:32.490Z,1016.38
2018-05-08T06:23:41.323Z,1016.43
2018-05-08T06:24:50.715Z,1016.42
2018-05-08T06:25:59.895Z,1016.42
2018-05-08T06:27:09.080Z,1016.42
2018-05-08T06:28:17.917Z,1016.41
2018-05-08T06:29:27.045Z,1016.38
2018-05-08T06:30:36.181Z,1016.39
2018-05-08T06:31:45.017Z,1016.41
2018-05-08T06:32:53.853Z,1016.4
2018-05-08T06:34:03.240Z,1016.37
2018-05-08T06:35:12.074Z,1016.36
2018-05-08T06:36:21.185Z,1016.37
2018-05-08T06:37:30.021Z,1016.34
2018-05-08T06:38:39.008Z,1016.33
2018-05-08T06:39:48.124Z,1016.3
2018-05-08T06:40:56.961Z,1016.29
2018-05-08T06:42:05.799Z,1016.3
2018-05-08T06:43:14.637Z,1016.32
2018-05-08T06:44:23.662Z,1016.33
2018-05-08T06:45:32.313Z,1016.29
2018-05-08T06:46:41.228Z,1016.32
2018-05-08T06:47:49.984Z,1016.32
2018-05-08T06:48:58.823Z,1016.34
2018-05-08T06:50:07.813Z,1016.35
2018-05-08T06:51:16.654Z,1016.35
2018-05-08T06:52:25.767Z,1016.38
2018-05-08T06:53:34.601Z,1016.38
2018-05-08T06:54:43.442Z,1016.37
2018-05-08T06:55:52.854Z,1016.36
2018-05-08T06:57:01.690Z,1016.34
2018-05-08T06:58:10.526Z,1016.34
2018-05-08T06:59:19.365Z,1016.36
2018-05-08T07:00:28.472Z,1016.33
2018-05-08T07:01:37.758Z,1016.31
2018-05-08T07:02:46.594Z,1016.3
2018-05-08T07:03:55.705Z,1016.29
2018-05-08T07:05:04.814Z,1016.34
2018-05-08T07:06:13.649Z,1016.31
2018-05-08T07:07:22.584Z,1016.32
2018-05-08T07:08:31.420Z,1016.33
2018-05-08T07:09:40.533Z,1016.36
2018-05-08T07:10:49.371Z,1016.4
2018-05-08T07:11:58.209Z,1016.4
2018-05-08T07:13:07.299Z,1016.39
2018-05-08T07:14:16.207Z,1016.35
2018-05-08T07:15:24.974Z,1016.36
2018-05-08T07:16:33.808Z,1016.36
2018-05-08T07:17:42.646Z,1016.35
2018-05-08T07:18:52.369Z,1016.38
2018-05-08T07:20:01.484Z,1016.38
2018-05-08T07:21:10.598Z,1016.38
2018-05-08T07:22:19.437Z,1016.34
2018-05-08T07:23:28.551Z,1016.33
2018-05-08T07:24:37.992Z,1016.31
2018-05-08T07:25:46.833Z,1016.36
2018-05-08T07:26:55.999Z,1016.32
2018-05-08T07:28:04.836Z,1016.3
2018-05-08T07:29:13.678Z,1016.27
2018-05-08T07:30:22.941Z,1016.24
2018-05-08T07:31:31.786Z,1016.27
2018-05-08T07:32:40.616Z,1016.27
2018-05-08T07:33:49.453Z,1016.25
2018-05-08T07:34:58.292Z,1016.24
2018-05-08T07:36:07.132Z,1016.24
2018-05-08T07:37:15.969Z,1016.26
2018-05-08T07:38:24.898Z,1016.27
2018-05-08T07:39:33.645Z,1016.25
2018-05-08T07:40:42.634Z,1016.23
2018-05-08T07:41:51.625Z,1016.21
2018-05-08T07:43:00.463Z,1016.21
2018-05-08T07:44:09.299Z,1016.17
2018-05-08T07:45:18.431Z,1016.23
2018-05-08T07:46:27.541Z,1016.19
2018-05-08T07:47:37.108Z,1016.21
2018-05-08T07:48:45.945Z,1016.23
2018-05-08T07:49:55.057Z,1016.21
2018-05-08T07:51:04.171Z,1016.18
2018-05-08T07:52:13.008Z,1016.15
2018-05-08T07:53:21.897Z,1016.12
2018-05-08T07:54:30.735Z,1016.11
2018-05-08T07:55:39.573Z,1016.14
2018-05-08T07:56:48.684Z,1016.09
2018-05-08T07:57:57.522Z,1016.06
2018-05-08T07:59:07.267Z,1016.12
2018-05-08T08:00:16.105Z,1016.13
2018-05-08T08:01:24.986Z,1016.14
2018-05-08T08:02:34.059Z,1016.11
2018-05-08T08:03:43.261Z,1016.11
2018-05-08T08:04:52.435Z,1016.1
2018-05-08T08:06:01.275Z,1016.14
2018-05-08T08:07:10.388Z,1016.12
2018-05-08T08:08:19.227Z,1016.11
2018-05-08T08:09:28.065Z,1016.06
2018-05-08T08:10:37.282Z,1016.05
2018-05-08T08:11:46.395Z,1016.05
2018-05-08T08:12:55.516Z,1016.08
2018-05-08T08:14:04.353Z,1016.07
2018-05-08T08:15:13.192Z,1016.04
2018-05-08T08:16:22.181Z,1016.03
2018-05-08T08:17:31.023Z,1015.98
2018-05-08T08:18:39.937Z,1015.95
2018-05-08T08:19:49.354Z,1015.95
2018-05-08T08:20:58.192Z,1015.93
2018-05-08T08:22:07.405Z,1015.97
2018-05-08T08:23:16.245Z,1015.97
2018-05-08T08:24:25.391Z,1015.92
2018-05-08T08:25:34.478Z,1015.91
2018-05-08T08:26:43.597Z,1015.9
2018-05-08T08:27:52.582Z,1015.95
2018-05-08T08:29:01.421Z,1015.92
2018-05-08T08:30:10.259Z,1015.91
2018-05-08T08:31:19.098Z,1015.8
2018-05-08T08:32:27.935Z,1015.88
2018-05-08T08:33:37.200Z,1015.8
2018-05-08T08:34:46.042Z,1015.71
2018-05-08T08:35:54.878Z,1015.76
2018-05-08T08:37:03.991Z,1015.75
2018-05-08T08:38:12.844Z,1015.75
2018-05-08T08:39:21.922Z,1015.73
2018-05-08T08:40:31.048Z,1015.67
2018-05-08T08:41:40.160Z,1015.71
2018-05-08T08:42:48.998Z,1015.74
2018-05-08T08:43:57.838Z,1015.7
2018-05-08T08:45:06.678Z,1015.71
2018-05-08T08:46:15.517Z,1015.7
2018-05-08T08:47:24.355Z,1015.73
2018-05-08T08:48:33.956Z,1015.7
2018-05-08T08:49:42.795Z,1015.77
2018-05-08T08:50:51.684Z,1015.73
2018-05-08T08:52:00.523Z,1015.68
2018-05-08T08:53:09.362Z,1015.66
2018-05-08T08:54:18.202Z,1015.7
2018-05-08T08:55:27.043Z,1015.69
2018-05-08T08:56:36.159Z,1015.66
2018-05-08T08:57:44.996Z,1015.64
2018-05-08T08:58:53.836Z,1015.68
2018-05-08T09:00:02.675Z,1015.64
2018-05-08T09:01:11.515Z,1015.67
2018-05-08T09:02:20.631Z,1015.64
2018-05-08T09:03:29.749Z,1015.62
2018-05-08T09:04:38.595Z,1015.57
2018-05-08T09:05:47.712Z,1015.6
2018-05-08T09:06:56.826Z,1015.74
2018-05-08T09:08:05.716Z,1015.62
2018-05-08T09:09:14.912Z,1015.65
2018-05-08T09:10:23.798Z,1015.57
2018-05-08T09:11:32.867Z,1015.62
2018-05-08T09:12:41.983Z,1015.59
2018-05-08T09:13:50.820Z,1015.57
2018-05-08T09:14:59.675Z,1015.6
2018-05-08T09:16:08.866Z,1015.57
2018-05-08T09:17:17.706Z,1015.52
2018-05-08T09:18:26.544Z,1015.51
2018-05-08T09:19:35.767Z,1015.51
2018-05-08T09:20:44.602Z,1015.5
2018-05-08T09:21:53.442Z,1015.48
2018-05-08T09:23:02.280Z,1015.49
2018-05-08T09:24:11.123Z,1015.5
2018-05-08T09:25:20.062Z,1015.44
2018-05-08T09:26:28.902Z,1015.4
2018-05-08T09:27:37.816Z,1015.49
2018-05-08T09:28:47.220Z,1015.42
2018-05-08T09:29:56.058Z,1015.45
2018-05-08T09:31:05.005Z,1015.43
2018-05-08T09:32:13.836Z,1015.42
2018-05-08T09:33:22.677Z,1015.34
2018-05-08T09:34:31.517Z,1015.36
2018-05-08T09:35:40.359Z,1015.37
2018-05-08T09:36:49.294Z,1015.36
2018-05-08T09:37:58.414Z,1015.39
2018-05-08T09:39:07.814Z,1015.32
2018-05-08T09:40:16.928Z,1015.37
2018-05-08T09:41:25.771Z,1015.35
2018-05-08T09:42:35.068Z,1015.25
2018-05-08T09:43:43.901Z,1015.29
2018-05-08T09:44:52.740Z,1015.18
2018-05-08T09:46:01.582Z,1015.18
2018-05-08T09:47:10.426Z,1015.17
2018-05-08T09:48:19.375Z,1015.17
2018-05-08T09:49:28.208Z,1015.09
2018-05-08T09:50:37.049Z,1015.14
2018-05-08T09:51:46.256Z,1015.16
2018-05-08T09:52:55.100Z,1015.14
2018-05-08T09:54:04.267Z,1015.16
2018-05-08T09:55:13.495Z,1015.16
2018-05-08T09:56:22.339Z,1015.16
2018-05-08T09:57:31.175Z,1015.13
2018-05-08T09:58:40.013Z,1015.11
2018-05-08T09:59:48.951Z,1015.11
2018-05-08T10:00:57.870Z,1015.07
2018-05-08T10:02:07.209Z,1015.05
2018-05-08T10:03:16.053Z,1015.11
2018-05-08T10:04:25.170Z,1015.05
2018-05-08T10:05:34.463Z,1015.04
2018-05-08T10:06:43.327Z,1015.06
2018-05-08T10:07:52.856Z,1015.09
2018-05-08T10:09:01.694Z,1015.03
2018-05-08T10:10:10.535Z,1015.11
2018-05-08T10:11:19.700Z,1015.02
2018-05-08T10:12:28.815Z,1015.07
2018-05-08T10:13:37.656Z,1014.98
2018-05-08T10:14:46.777Z,1014.87
2018-05-08T10:15:55.898Z,1014.89
2018-05-08T10:17:05.013Z,1014.95
2018-05-08T10:18:13.864Z,1014.91
2018-05-08T10:19:22.706Z,1014.92
2018-05-08T10:20:31.913Z,1014.91
2018-05-08T10:21:41.447Z,1014.87
2018-05-08T10:22:50.387Z,1014.88
2018-05-08T10:23:59.232Z,1014.82
2018-05-08T10:25:08.352Z,1014.8
2018-05-08T10:26:17.470Z,1014.85
2018-05-08T10:27:26.311Z,1014.78
2018-05-08T10:28:35.781Z,1014.76
2018-05-08T10:29:44.620Z,1014.81
2018-05-08T10:30:53.460Z,1014.77
2018-05-08T10:32:02.300Z,1014.8
2018-05-08T10:33:11.142Z,1014.82
2018-05-08T10:34:20.184Z,1014.72
2018-05-08T10:35:29.295Z,1014.72
2018-05-08T10:36:38.134Z,1014.67
2018-05-08T10:37:47.252Z,1014.64
2018-05-08T10:38:56.094Z,1014.64
2018-05-08T10:40:05.368Z,1014.64
2018-05-08T10:41:14.208Z,1014.65
2018-05-08T10:42:23.319Z,1014.63
2018-05-08T10:43:32.160Z,1014.59
2018-05-08T10:44:41.002Z,1014.55
2018-05-08T10:45:49.892Z,1014.55
2018-05-08T10:46:58.732Z,1014.49
2018-05-08T10:48:07.575Z,1014.54
2018-05-08T10:49:16.422Z,1014.51
2018-05-08T10:50:25.260Z,1014.49
2018-05-08T10:51:34.251Z,1014.48
2018-05-08T10:52:43.090Z,1014.52
2018-05-08T10:53:51.936Z,1014.47
2018-05-08T10:55:00.780Z,1014.42
2018-05-08T10:56:09.614Z,1014.47
2018-05-08T10:57:18.908Z,1014.45
2018-05-08T10:58:27.750Z,1014.39
2018-05-08T10:59:36.591Z,1014.4
2018-05-08T11:00:45.432Z,1014.37
2018-05-08T11:01:54.275Z,1014.4
2018-05-08T11:03:03.715Z,1014.39
2018-05-08T11:04:12.555Z,1014.38
2018-05-08T11:05:21.412Z,1014.34
2018-05-08T11:06:30.245Z,1014.4
2018-05-08T11:07:39.087Z,1014.35
2018-05-08T11:08:48.212Z,1014.26
2018-05-08T11:09:57.354Z,1014.31
2018-05-08T11:11:06.198Z,1014.26
2018-05-08T11:12:15.250Z,1014.24
2018-05-08T11:13:24.119Z,1014.28
2018-05-08T11:14:33.106Z,1014.23
2018-05-08T11:15:42.529Z,1014.2
2018-05-08T11:16:51.373Z,1014.19
2018-05-08T11:18:00.461Z,1014.22
2018-05-08T11:19:09.552Z,1014.16
2018-05-08T11:20:18.524Z,1014.17
2018-05-08T11:21:27.915Z,1014.12
2018-05-08T11:22:36.755Z,1014.04
2018-05-08T11:23:45.875Z,1014.05
2018-05-08T11:24:55.040Z,1014.03
2018-05-08T11:26:04.300Z,1014.03
2018-05-08T11:27:13.143Z,1014.11
2018-05-08T11:28:21.989Z,1014.07
2018-05-08T11:29:31.433Z,1014.03
2018-05-08T11:30:40.573Z,1013.97
2018-05-08T11:31:49.699Z,1013.95
2018-05-08T11:32:58.826Z,1013.95
2018-05-08T11:34:07.665Z,1013.96
2018-05-08T11:35:16.507Z,1013.95
2018-05-08T11:36:25.351Z,1013.93
2018-05-08T11:37:34.243Z,1013.91
2018-05-08T11:38:43.086Z,1013.9
2018-05-08T11:39:51.929Z,1013.89
2018-05-08T11:41:01.054Z,1013.88
2018-05-08T11:42:09.899Z,1013.81
2018-05-08T11:43:18.841Z,1013.88
2018-05-08T11:44:27.685Z,1013.83
2018-05-08T11:45:36.537Z,1013.86
2018-05-08T11:46:45.936Z,1013.83
2018-05-08T11:47:55.052Z,1013.8
2018-05-08T11:49:03.955Z,1013.8
2018-05-08T11:50:13.089Z,1013.84
2018-05-08T11:51:22.211Z,1013.74
2018-05-08T11:52:31.055Z,1013.84
2018-05-08T11:53:40.180Z,1013.76
2018-05-08T11:54:49.121Z,1013.82
2018-05-08T11:55:57.961Z,1013.78
2018-05-08T11:57:06.806Z,1013.76
2018-05-08T11:58:15.924Z,1013.78
2018-05-08T11:59:25.233Z,1013.72
2018-05-08T12:00:34.232Z,1013.66
2018-05-08T12:01:43.353Z,1013.6
2018-05-08T12:02:52.203Z,1013.73
2018-05-08T12:04:01.057Z,1013.69
2018-05-08T12:05:09.971Z,1013.68
2018-05-08T12:06:19.227Z,1013.6
2018-05-08T12:07:28.082Z,1013.64
2018-05-08T12:08:37.207Z,1013.58
2018-05-08T12:09:46.051Z,1013.64
2018-05-08T12:10:54.904Z,1013.61
2018-05-08T12:12:03.755Z,1013.67
2018-05-08T12:13:12.603Z,1013.57
2018-05-08T12:14:21.450Z,1013.61
2018-05-08T12:15:30.665Z,1013.6
2018-05-08T12:16:39.795Z,1013.59
2018-05-08T12:17:49.087Z,1013.55
2018-05-08T12:18:58.205Z,1013.55
2018-05-08T12:20:07.328Z,1013.56
2018-05-08T12:21:16.178Z,1013.56
2018-05-08T12:22:25.314Z,1013.47
2018-05-08T12:23:34.314Z,1013.51
2018-05-08T12:24:43.165Z,1013.49
2018-05-08T12:25:52.291Z,1013.42
2018-05-08T12:27:01.146Z,1013.43
2018-05-08T12:28:10.276Z,1013.43
2018-05-08T12:29:19.549Z,1013.47
2018-05-08T12:30:28.405Z,1013.42
2018-05-08T12:31:37.549Z,1013.36
2018-05-08T12:32:46.681Z,1013.32
2018-05-08T12:33:55.535Z,1013.31
2018-05-08T12:35:04.763Z,1013.29
2018-05-08T12:36:13.693Z,1013.23
2018-05-08T12:37:22.881Z,1013.23
2018-05-08T12:38:31.731Z,1013.25
2018-05-08T12:39:40.872Z,1013.24
2018-05-08T12:40:53.419Z,1013.37
2018-05-08T12:42:02.605Z,1013.32
2018-05-08T12:43:11.732Z,1013.3
2018-05-08T12:44:20.583Z,1013.3
2018-05-08T12:45:30.330Z,1013.31
2018-05-08T12:46:39.536Z,1013.34
2018-05-08T12:47:48.387Z,1013.31
2018-05-08T12:48:57.249Z,1013.33
2018-05-08T12:50:06.105Z,1013.33
2018-05-08T12:51:14.959Z,1013.3
2018-05-08T12:52:23.984Z,1013.31
2018-05-08T12:53:33.683Z,1013.33
2018-05-08T12:54:43.094Z,1013.16
2018-05-08T12:55:51.943Z,1013.2
2018-05-08T12:57:01.087Z,1013.26
2018-05-08T12:58:09.951Z,1013.21
2018-05-08T12:59:18.806Z,1013.21
2018-05-08T13:00:27.969Z,1013.18
2018-05-08T13:01:37.636Z,1013.11
2018-05-08T13:02:46.823Z,1013.19
2018-05-08T13:03:55.725Z,1013.15
2018-05-08T13:05:04.593Z,1013.12
2018-05-08T13:06:13.459Z,1013.14
2018-05-08T13:07:22.304Z,1013.13
2018-05-08T13:08:31.158Z,1013.13
2018-05-08T13:09:40.442Z,1013.12
2018-05-08T13:10:49.325Z,1013.11
2018-05-08T13:11:58.504Z,1013.09
2018-05-08T13:13:08.103Z,1013.1
2018-05-08T13:14:17.404Z,1013.12
2018-05-08T13:15:26.817Z,1013.05
2018-05-08T13:16:35.670Z,1013.08
2018-05-08T13:17:44.521Z,1013.07
2018-05-08T13:18:53.473Z,1013.05
2018-05-08T13:20:02.604Z,1013.06
2018-05-08T13:21:11.461Z,1013.03
2018-05-08T13:22:20.318Z,1013.1
2018-05-08T13:23:29.207Z,1013.09
2018-05-08T13:24:38.051Z,1013.04
2018-05-08T13:25:47.164Z,1013.03
2018-05-08T13:26:56.744Z,1013
2018-05-08T13:28:05.897Z,1012.97
2018-05-08T13:29:14.753Z,1012.99
2018-05-08T13:30:23.609Z,1012.93
2018-05-08T13:31:33.038Z,1012.98
2018-05-08T13:32:42.063Z,1012.99
2018-05-08T13:33:51.649Z,1012.97
2018-05-08T13:35:00.776Z,1012.94
2018-05-08T13:36:09.633Z,1012.92
2018-05-08T13:37:18.492Z,1012.94
2018-05-08T13:38:27.347Z,1013.01
2018-05-08T13:39:36.202Z,1013.1
2018-05-08T13:40:45.141Z,1013.14
2018-05-08T13:41:54.073Z,1013.12
2018-05-08T13:43:03.222Z,1013.14
2018-05-08T13:44:12.080Z,1013.1
2018-05-08T13:45:20.940Z,1013.06
2018-05-08T13:46:29.801Z,1013.03
2018-05-08T13:47:38.665Z,1013.08
2018-05-08T13:48:47.526Z,1013.07
2018-05-08T13:49:56.583Z,1013.04
2018-05-08T13:51:05.443Z,1013.12
2018-05-08T13:52:14.306Z,1013.02
2018-05-08T13:53:23.163Z,1013.03
2018-05-08T13:54:32.020Z,1013.06
2018-05-08T13:55:41.499Z,1013.07
2018-05-08T13:56:50.355Z,1013.11
2018-05-08T13:57:59.492Z,1013.08